sensor_id;sensor_type;location;lat;lon;timestamp;temperature;humidity
29663;DHT22;16578;53.266;7.920;2023-12-20T00:00:00;9.70;85.30
29663;DHT22;16578;53.266;7.920;2023-12-20T00:02:25;9.70;85.40
29663;DHT22;16578;53.266;7.920;2023-12-20T00:04:51;9.70;85.40
29663;DHT22;16578;53.266;7.920;2023-12-20T00:07:16;9.60;85.40
29663;DHT22;16578;53.266;7.920;2023-12-20T00:09:42;9.60;85.30
29663;DHT22;16578;53.266;7.920;2023-12-20T00:12:08;9.60;85.30
29663;DHT22;16578;53.266;7.920;2023-12-20T00:14:33;9.60;85.30
29663;DHT22;16578;53.266;7.920;2023-12-20T00:16:59;9.60;85.40
29663;DHT22;16578;53.266;7.920;2023-12-20T00:19:24;9.50;85.30
29663;DHT22;16578;53.266;7.920;2023-12-20T00:21:50;9.50;85.30
29663;DHT22;16578;53.266;7.920;2023-12-20T00:24:15;9.50;85.30
29663;DHT22;16578;53.266;7.920;2023-12-20T00:26:41;9.50;85.30
29663;DHT22;16578;53.266;7.920;2023-12-20T00:29:07;9.50;85.30
29663;DHT22;16578;53.266;7.920;2023-12-20T00:31:33;9.50;85.30
29663;DHT22;16578;53.266;7.920;2023-12-20T00:33:58;9.50;85.30
29663;DHT22;16578;53.266;7.920;2023-12-20T00:36:24;9.50;85.30
29663;DHT22;16578;53.266;7.920;2023-12-20T00:38:49;9.50;85.30
29663;DHT22;16578;53.266;7.920;2023-12-20T00:41:16;9.50;85.40
29663;DHT22;16578;53.266;7.920;2023-12-20T00:43:42;9.40;85.40
29663;DHT22;16578;53.266;7.920;2023-12-20T00:46:07;9.40;85.40
29663;DHT22;16578;53.266;7.920;2023-12-20T00:48:33;9.40;85.40
29663;DHT22;16578;53.266;7.920;2023-12-20T00:50:59;9.40;85.40
29663;DHT22;16578;53.266;7.920;2023-12-20T00:53:24;9.40;85.40
29663;DHT22;16578;53.266;7.920;2023-12-20T00:55:50;9.40;85.30
29663;DHT22;16578;53.266;7.920;2023-12-20T00:58:15;9.40;85.40
29663;DHT22;16578;53.266;7.920;2023-12-20T01:00:41;9.40;85.40
29663;DHT22;16578;53.266;7.920;2023-12-20T01:03:09;9.40;85.40
29663;DHT22;16578;53.266;7.920;2023-12-20T01:05:35;9.30;85.40
29663;DHT22;16578;53.266;7.920;2023-12-20T01:08:00;9.30;85.40
29663;DHT22;16578;53.266;7.920;2023-12-20T01:10:28;9.30;85.50
29663;DHT22;16578;53.266;7.920;2023-12-20T01:12:54;9.30;85.40
29663;DHT22;16578;53.266;7.920;2023-12-20T01:15:20;9.30;85.40
29663;DHT22;16578;53.266;7.920;2023-12-20T01:17:46;9.30;85.40
29663;DHT22;16578;53.266;7.920;2023-12-20T01:20:11;9.30;85.50
29663;DHT22;16578;53.266;7.920;2023-12-20T01:22:37;9.30;85.60
29663;DHT22;16578;53.266;7.920;2023-12-20T01:25:03;9.30;85.50
29663;DHT22;16578;53.266;7.920;2023-12-20T01:27:28;9.30;85.50
29663;DHT22;16578;53.266;7.920;2023-12-20T01:29:54;9.30;85.70
29663;DHT22;16578;53.266;7.920;2023-12-20T01:32:20;9.30;85.70
29663;DHT22;16578;53.266;7.920;2023-12-20T01:34:45;9.30;85.70
29663;DHT22;16578;53.266;7.920;2023-12-20T01:37:11;9.30;85.70
29663;DHT22;16578;53.266;7.920;2023-12-20T01:39:36;9.30;85.70
29663;DHT22;16578;53.266;7.920;2023-12-20T01:42:02;9.30;85.70
29663;DHT22;16578;53.266;7.920;2023-12-20T01:44:28;9.30;85.80
29663;DHT22;16578;53.266;7.920;2023-12-20T01:46:54;9.30;85.70
29663;DHT22;16578;53.266;7.920;2023-12-20T01:49:20;9.30;85.70
29663;DHT22;16578;53.266;7.920;2023-12-20T01:51:46;9.30;85.70
29663;DHT22;16578;53.266;7.920;2023-12-20T01:54:12;9.40;85.70
29663;DHT22;16578;53.266;7.920;2023-12-20T01:56:39;9.40;85.70
29663;DHT22;16578;53.266;7.920;2023-12-20T01:59:05;9.40;85.80
29663;DHT22;16578;53.266;7.920;2023-12-20T02:01:33;9.40;86.70
29663;DHT22;16578;53.266;7.920;2023-12-20T02:03:59;9.40;85.80
29663;DHT22;16578;53.266;7.920;2023-12-20T02:06:29;9.40;85.80
29663;DHT22;16578;53.266;7.920;2023-12-20T02:08:57;9.40;85.70
29663;DHT22;16578;53.266;7.920;2023-12-20T02:11:23;9.40;86.60
29663;DHT22;16578;53.266;7.920;2023-12-20T02:13:52;9.40;85.80
29663;DHT22;16578;53.266;7.920;2023-12-20T02:16:17;9.40;85.90
29663;DHT22;16578;53.266;7.920;2023-12-20T02:18:43;9.40;86.80
29663;DHT22;16578;53.266;7.920;2023-12-20T02:21:10;9.50;85.90
29663;DHT22;16578;53.266;7.920;2023-12-20T02:23:35;9.50;86.00
29663;DHT22;16578;53.266;7.920;2023-12-20T02:26:02;9.50;86.00
29663;DHT22;16578;53.266;7.920;2023-12-20T02:28:28;9.50;85.90
29663;DHT22;16578;53.266;7.920;2023-12-20T02:30:54;9.50;85.90
29663;DHT22;16578;53.266;7.920;2023-12-20T02:33:19;9.50;85.90
29663;DHT22;16578;53.266;7.920;2023-12-20T02:35:45;9.60;86.00
29663;DHT22;16578;53.266;7.920;2023-12-20T02:38:11;9.60;85.90
29663;DHT22;16578;53.266;7.920;2023-12-20T02:40:36;9.60;85.80
29663;DHT22;16578;53.266;7.920;2023-12-20T02:43:02;9.70;85.90
29663;DHT22;16578;53.266;7.920;2023-12-20T02:45:28;9.70;85.90
29663;DHT22;16578;53.266;7.920;2023-12-20T02:47:53;9.70;85.80
29663;DHT22;16578;53.266;7.920;2023-12-20T02:50:19;9.70;85.80
29663;DHT22;16578;53.266;7.920;2023-12-20T02:52:45;9.70;85.80
29663;DHT22;16578;53.266;7.920;2023-12-20T02:55:11;9.70;85.80
29663;DHT22;16578;53.266;7.920;2023-12-20T02:57:36;9.70;85.90
29663;DHT22;16578;53.266;7.920;2023-12-20T03:00:10;9.70;85.90
29663;DHT22;16578;53.266;7.920;2023-12-20T03:02:36;9.80;85.90
29663;DHT22;16578;53.266;7.920;2023-12-20T03:05:02;9.70;85.70
29663;DHT22;16578;53.266;7.920;2023-12-20T03:07:28;9.80;85.80
29663;DHT22;16578;53.266;7.920;2023-12-20T03:09:53;9.80;85.80
29663;DHT22;16578;53.266;7.920;2023-12-20T03:12:19;9.80;85.80
29663;DHT22;16578;53.266;7.920;2023-12-20T03:14:44;9.80;85.80
29663;DHT22;16578;53.266;7.920;2023-12-20T03:17:10;9.80;85.70
29663;DHT22;16578;53.266;7.920;2023-12-20T03:19:36;9.80;85.70
29663;DHT22;16578;53.266;7.920;2023-12-20T03:22:01;9.80;85.70
29663;DHT22;16578;53.266;7.920;2023-12-20T03:24:27;9.80;85.70
29663;DHT22;16578;53.266;7.920;2023-12-20T03:26:53;9.80;85.70
29663;DHT22;16578;53.266;7.920;2023-12-20T03:29:18;9.80;85.70
29663;DHT22;16578;53.266;7.920;2023-12-20T03:31:44;9.90;85.70
29663;DHT22;16578;53.266;7.920;2023-12-20T03:34:11;9.80;85.60
29663;DHT22;16578;53.266;7.920;2023-12-20T03:36:36;9.90;85.70
29663;DHT22;16578;53.266;7.920;2023-12-20T03:39:02;9.90;85.70
29663;DHT22;16578;53.266;7.920;2023-12-20T03:41:28;9.90;85.50
29663;DHT22;16578;53.266;7.920;2023-12-20T03:43:53;9.90;85.50
29663;DHT22;16578;53.266;7.920;2023-12-20T03:46:19;9.90;85.40
29663;DHT22;16578;53.266;7.920;2023-12-20T03:48:45;9.90;85.40
29663;DHT22;16578;53.266;7.920;2023-12-20T03:51:10;9.90;86.20
29663;DHT22;16578;53.266;7.920;2023-12-20T03:53:36;9.80;85.20
29663;DHT22;16578;53.266;7.920;2023-12-20T03:56:02;9.90;85.30
29663;DHT22;16578;53.266;7.920;2023-12-20T03:58:27;9.80;85.20
29663;DHT22;16578;53.266;7.920;2023-12-20T04:00:53;9.80;85.10
29663;DHT22;16578;53.266;7.920;2023-12-20T04:03:18;9.80;86.00
29663;DHT22;16578;53.266;7.920;2023-12-20T04:05:44;9.80;85.20
29663;DHT22;16578;53.266;7.920;2023-12-20T04:08:09;9.80;85.20
29663;DHT22;16578;53.266;7.920;2023-12-20T04:10:35;9.80;85.20
29663;DHT22;16578;53.266;7.920;2023-12-20T04:13:03;9.80;85.10
29663;DHT22;16578;53.266;7.920;2023-12-20T04:15:28;9.80;85.10
29663;DHT22;16578;53.266;7.920;2023-12-20T04:17:54;9.80;85.00
29663;DHT22;16578;53.266;7.920;2023-12-20T04:20:19;9.80;85.00
29663;DHT22;16578;53.266;7.920;2023-12-20T04:22:45;9.70;85.10
29663;DHT22;16578;53.266;7.920;2023-12-20T04:25:11;9.80;85.30
29663;DHT22;16578;53.266;7.920;2023-12-20T04:27:36;9.70;85.30
29663;DHT22;16578;53.266;7.920;2023-12-20T04:30:02;9.80;85.40
29663;DHT22;16578;53.266;7.920;2023-12-20T04:32:28;9.80;85.40
29663;DHT22;16578;53.266;7.920;2023-12-20T04:34:53;9.80;85.40
29663;DHT22;16578;53.266;7.920;2023-12-20T04:37:19;9.80;85.50
29663;DHT22;16578;53.266;7.920;2023-12-20T04:39:44;9.80;85.50
29663;DHT22;16578;53.266;7.920;2023-12-20T04:42:10;9.80;85.60
29663;DHT22;16578;53.266;7.920;2023-12-20T04:44:36;9.80;86.30
29663;DHT22;16578;53.266;7.920;2023-12-20T04:47:01;9.80;85.40
29663;DHT22;16578;53.266;7.920;2023-12-20T04:49:27;9.80;85.30
29663;DHT22;16578;53.266;7.920;2023-12-20T04:51:52;9.90;85.30
29663;DHT22;16578;53.266;7.920;2023-12-20T04:56:47;9.90;85.30
29663;DHT22;16578;53.266;7.920;2023-12-20T04:59:13;9.80;85.30
29663;DHT22;16578;53.266;7.920;2023-12-20T05:01:39;9.80;85.20
29663;DHT22;16578;53.266;7.920;2023-12-20T05:04:04;9.80;85.20
29663;DHT22;16578;53.266;7.920;2023-12-20T05:06:30;9.80;85.30
29663;DHT22;16578;53.266;7.920;2023-12-20T05:08:55;9.80;85.30
29663;DHT22;16578;53.266;7.920;2023-12-20T05:11:21;9.80;85.30
29663;DHT22;16578;53.266;7.920;2023-12-20T05:13:46;9.80;85.30
29663;DHT22;16578;53.266;7.920;2023-12-20T05:16:12;9.80;85.30
29663;DHT22;16578;53.266;7.920;2023-12-20T05:18:39;9.80;85.40
29663;DHT22;16578;53.266;7.920;2023-12-20T05:21:05;9.80;85.40
29663;DHT22;16578;53.266;7.920;2023-12-20T05:23:30;9.80;85.30
29663;DHT22;16578;53.266;7.920;2023-12-20T05:25:56;9.80;85.40
29663;DHT22;16578;53.266;7.920;2023-12-20T05:28:21;9.80;85.40
29663;DHT22;16578;53.266;7.920;2023-12-20T05:30:47;9.80;85.30
29663;DHT22;16578;53.266;7.920;2023-12-20T05:33:12;9.90;86.20
29663;DHT22;16578;53.266;7.920;2023-12-20T05:35:38;9.80;85.20
29663;DHT22;16578;53.266;7.920;2023-12-20T05:38:04;9.90;85.30
29663;DHT22;16578;53.266;7.920;2023-12-20T05:40:29;9.80;85.40
29663;DHT22;16578;53.266;7.920;2023-12-20T05:42:55;9.80;85.40
29663;DHT22;16578;53.266;7.920;2023-12-20T05:45:20;9.90;85.50
29663;DHT22;16578;53.266;7.920;2023-12-20T05:47:46;9.90;85.50
29663;DHT22;16578;53.266;7.920;2023-12-20T05:50:11;9.90;85.50
29663;DHT22;16578;53.266;7.920;2023-12-20T05:52:37;9.90;85.50
29663;DHT22;16578;53.266;7.920;2023-12-20T05:55:03;9.90;85.50
29663;DHT22;16578;53.266;7.920;2023-12-20T05:57:28;10.00;85.60
29663;DHT22;16578;53.266;7.920;2023-12-20T05:59:54;10.00;85.50
29663;DHT22;16578;53.266;7.920;2023-12-20T06:02:20;10.00;85.50
29663;DHT22;16578;53.266;7.920;2023-12-20T06:04:45;10.00;85.40
29663;DHT22;16578;53.266;7.920;2023-12-20T06:07:12;10.00;85.40
29663;DHT22;16578;53.266;7.920;2023-12-20T06:09:38;10.00;85.40
29663;DHT22;16578;53.266;7.920;2023-12-20T06:12:04;10.00;86.20
29663;DHT22;16578;53.266;7.920;2023-12-20T06:14:30;10.00;85.40
29663;DHT22;16578;53.266;7.920;2023-12-20T06:16:56;10.00;85.40
29663;DHT22;16578;53.266;7.920;2023-12-20T06:19:22;10.00;85.40
29663;DHT22;16578;53.266;7.920;2023-12-20T06:21:48;10.00;85.40
29663;DHT22;16578;53.266;7.920;2023-12-20T06:24:13;10.00;85.40
29663;DHT22;16578;53.266;7.920;2023-12-20T06:26:39;10.00;85.40
29663;DHT22;16578;53.266;7.920;2023-12-20T06:29:04;10.10;85.50
29663;DHT22;16578;53.266;7.920;2023-12-20T06:31:30;10.10;85.60
29663;DHT22;16578;53.266;7.920;2023-12-20T06:33:58;10.10;85.60
29663;DHT22;16578;53.266;7.920;2023-12-20T06:36:25;10.10;85.60
29663;DHT22;16578;53.266;7.920;2023-12-20T06:38:51;10.10;85.70
29663;DHT22;16578;53.266;7.920;2023-12-20T06:41:16;10.10;85.70
29663;DHT22;16578;53.266;7.920;2023-12-20T06:43:42;10.10;85.60
29663;DHT22;16578;53.266;7.920;2023-12-20T06:46:08;10.20;85.70
29663;DHT22;16578;53.266;7.920;2023-12-20T06:48:34;10.20;85.60
29663;DHT22;16578;53.266;7.920;2023-12-20T06:51:01;10.20;85.70
29663;DHT22;16578;53.266;7.920;2023-12-20T06:53:29;10.20;85.70
29663;DHT22;16578;53.266;7.920;2023-12-20T06:55:55;10.20;85.70
29663;DHT22;16578;53.266;7.920;2023-12-20T06:58:22;10.20;85.70
29663;DHT22;16578;53.266;7.920;2023-12-20T07:00:47;10.20;85.70
29663;DHT22;16578;53.266;7.920;2023-12-20T07:03:13;10.20;85.70
29663;DHT22;16578;53.266;7.920;2023-12-20T07:05:39;10.30;85.70
29663;DHT22;16578;53.266;7.920;2023-12-20T07:08:04;10.30;85.90
29663;DHT22;16578;53.266;7.920;2023-12-20T07:10:30;10.30;85.80
29663;DHT22;16578;53.266;7.920;2023-12-20T07:12:56;10.30;85.80
29663;DHT22;16578;53.266;7.920;2023-12-20T07:15:22;10.30;85.80
29663;DHT22;16578;53.266;7.920;2023-12-20T07:17:48;10.30;85.80
29663;DHT22;16578;53.266;7.920;2023-12-20T07:20:13;10.30;85.90
29663;DHT22;16578;53.266;7.920;2023-12-20T07:22:39;10.30;85.80
29663;DHT22;16578;53.266;7.920;2023-12-20T07:25:05;10.30;85.80
29663;DHT22;16578;53.266;7.920;2023-12-20T07:27:31;10.30;85.80
29663;DHT22;16578;53.266;7.920;2023-12-20T07:29:56;10.30;85.90
29663;DHT22;16578;53.266;7.920;2023-12-20T07:32:22;10.40;85.90
29663;DHT22;16578;53.266;7.920;2023-12-20T07:34:47;10.30;85.80
29663;DHT22;16578;53.266;7.920;2023-12-20T07:37:13;10.30;85.90
29663;DHT22;16578;53.266;7.920;2023-12-20T07:39:42;10.40;85.90
29663;DHT22;16578;53.266;7.920;2023-12-20T07:42:08;10.40;85.90
29663;DHT22;16578;53.266;7.920;2023-12-20T07:44:34;10.40;85.90
29663;DHT22;16578;53.266;7.920;2023-12-20T07:47:01;10.40;85.90
29663;DHT22;16578;53.266;7.920;2023-12-20T07:49:27;10.40;85.90
29663;DHT22;16578;53.266;7.920;2023-12-20T07:51:52;10.40;86.00
29663;DHT22;16578;53.266;7.920;2023-12-20T07:54:18;10.40;86.70
29663;DHT22;16578;53.266;7.920;2023-12-20T07:56:43;10.40;85.90
29663;DHT22;16578;53.266;7.920;2023-12-20T07:59:09;10.40;85.90
29663;DHT22;16578;53.266;7.920;2023-12-20T08:01:35;10.40;85.90
29663;DHT22;16578;53.266;7.920;2023-12-20T08:04:00;10.40;86.00
29663;DHT22;16578;53.266;7.920;2023-12-20T08:06:26;10.40;86.00
29663;DHT22;16578;53.266;7.920;2023-12-20T08:08:51;10.40;86.10
29663;DHT22;16578;53.266;7.920;2023-12-20T08:11:17;10.40;86.10
29663;DHT22;16578;53.266;7.920;2023-12-20T08:13:43;10.40;86.20
29663;DHT22;16578;53.266;7.920;2023-12-20T08:16:08;10.40;86.20
29663;DHT22;16578;53.266;7.920;2023-12-20T08:18:34;10.40;86.20
29663;DHT22;16578;53.266;7.920;2023-12-20T08:21:00;10.50;86.30
29663;DHT22;16578;53.266;7.920;2023-12-20T08:23:26;10.50;86.30
29663;DHT22;16578;53.266;7.920;2023-12-20T08:25:52;10.50;86.30
29663;DHT22;16578;53.266;7.920;2023-12-20T08:28:17;10.50;86.30
29663;DHT22;16578;53.266;7.920;2023-12-20T08:30:43;10.50;86.30
29663;DHT22;16578;53.266;7.920;2023-12-20T08:33:09;10.50;86.30
29663;DHT22;16578;53.266;7.920;2023-12-20T08:35:40;10.50;86.30
29663;DHT22;16578;53.266;7.920;2023-12-20T08:38:06;10.60;86.30
29663;DHT22;16578;53.266;7.920;2023-12-20T08:40:32;10.50;86.30
29663;DHT22;16578;53.266;7.920;2023-12-20T08:42:57;10.60;86.40
29663;DHT22;16578;53.266;7.920;2023-12-20T08:45:23;10.60;86.40
29663;DHT22;16578;53.266;7.920;2023-12-20T08:47:50;10.60;86.40
29663;DHT22;16578;53.266;7.920;2023-12-20T08:50:15;10.60;86.40
29663;DHT22;16578;53.266;7.920;2023-12-20T08:52:41;10.60;86.40
29663;DHT22;16578;53.266;7.920;2023-12-20T08:55:07;10.70;86.40
29663;DHT22;16578;53.266;7.920;2023-12-20T08:57:33;10.70;86.20
29663;DHT22;16578;53.266;7.920;2023-12-20T08:59:59;10.70;85.70
29663;DHT22;16578;53.266;7.920;2023-12-20T09:02:24;10.60;85.20
29663;DHT22;16578;53.266;7.920;2023-12-20T09:04:50;10.50;84.50
29663;DHT22;16578;53.266;7.920;2023-12-20T09:07:22;10.40;84.00
29663;DHT22;16578;53.266;7.920;2023-12-20T09:09:48;10.30;83.90
29663;DHT22;16578;53.266;7.920;2023-12-20T09:12:14;10.20;84.10
29663;DHT22;16578;53.266;7.920;2023-12-20T09:14:39;10.10;84.20
29663;DHT22;16578;53.266;7.920;2023-12-20T09:17:05;10.10;84.40
29663;DHT22;16578;53.266;7.920;2023-12-20T09:19:33;10.00;84.40
29663;DHT22;16578;53.266;7.920;2023-12-20T09:21:59;9.90;84.30
29663;DHT22;16578;53.266;7.920;2023-12-20T09:24:24;9.80;84.40
29663;DHT22;16578;53.266;7.920;2023-12-20T09:26:50;9.80;84.60
29663;DHT22;16578;53.266;7.920;2023-12-20T09:29:15;9.70;84.60
29663;DHT22;16578;53.266;7.920;2023-12-20T09:31:41;9.60;84.70
29663;DHT22;16578;53.266;7.920;2023-12-20T09:34:09;9.60;84.80
29663;DHT22;16578;53.266;7.920;2023-12-20T09:36:34;9.50;85.10
29663;DHT22;16578;53.266;7.920;2023-12-20T09:39:01;9.50;85.30
29663;DHT22;16578;53.266;7.920;2023-12-20T09:41:29;9.50;85.40
29663;DHT22;16578;53.266;7.920;2023-12-20T09:44:01;9.50;85.50
29663;DHT22;16578;53.266;7.920;2023-12-20T09:46:29;9.40;85.60
29663;DHT22;16578;53.266;7.920;2023-12-20T09:48:59;9.40;85.80
29663;DHT22;16578;53.266;7.920;2023-12-20T09:51:26;9.50;85.90
29663;DHT22;16578;53.266;7.920;2023-12-20T09:53:54;9.50;86.00
29663;DHT22;16578;53.266;7.920;2023-12-20T09:56:21;9.50;86.00
29663;DHT22;16578;53.266;7.920;2023-12-20T09:58:47;9.50;86.10
29663;DHT22;16578;53.266;7.920;2023-12-20T10:01:14;9.50;86.20
29663;DHT22;16578;53.266;7.920;2023-12-20T10:03:41;9.50;86.10
29663;DHT22;16578;53.266;7.920;2023-12-20T10:06:07;9.60;86.20
29663;DHT22;16578;53.266;7.920;2023-12-20T10:08:32;9.60;86.20
29663;DHT22;16578;53.266;7.920;2023-12-20T10:10:58;9.60;86.00
29663;DHT22;16578;53.266;7.920;2023-12-20T10:13:28;9.60;86.00
29663;DHT22;16578;53.266;7.920;2023-12-20T10:15:55;9.60;86.00
29663;DHT22;16578;53.266;7.920;2023-12-20T10:18:21;9.60;86.00
29663;DHT22;16578;53.266;7.920;2023-12-20T10:20:47;9.60;86.00
29663;DHT22;16578;53.266;7.920;2023-12-20T10:23:13;9.60;86.00
29663;DHT22;16578;53.266;7.920;2023-12-20T10:25:39;9.70;86.00
29663;DHT22;16578;53.266;7.920;2023-12-20T10:28:14;9.60;85.90
29663;DHT22;16578;53.266;7.920;2023-12-20T10:30:42;9.70;85.80
29663;DHT22;16578;53.266;7.920;2023-12-20T10:33:08;9.60;85.70
29663;DHT22;16578;53.266;7.920;2023-12-20T10:35:35;9.70;85.80
29663;DHT22;16578;53.266;7.920;2023-12-20T10:38:03;9.60;85.80
29663;DHT22;16578;53.266;7.920;2023-12-20T10:40:30;9.70;85.90
29663;DHT22;16578;53.266;7.920;2023-12-20T10:42:57;9.70;85.80
29663;DHT22;16578;53.266;7.920;2023-12-20T10:45:23;9.70;85.80
29663;DHT22;16578;53.266;7.920;2023-12-20T10:47:50;9.70;85.90
29663;DHT22;16578;53.266;7.920;2023-12-20T10:50:16;9.70;85.80
29663;DHT22;16578;53.266;7.920;2023-12-20T10:52:42;9.70;85.80
29663;DHT22;16578;53.266;7.920;2023-12-20T10:55:10;9.80;85.80
29663;DHT22;16578;53.266;7.920;2023-12-20T10:57:36;9.80;85.90
29663;DHT22;16578;53.266;7.920;2023-12-20T11:00:02;9.80;86.00
29663;DHT22;16578;53.266;7.920;2023-12-20T11:02:36;9.80;85.90
29663;DHT22;16578;53.266;7.920;2023-12-20T11:05:33;9.80;85.90
29663;DHT22;16578;53.266;7.920;2023-12-20T11:11:03;9.80;85.80
29663;DHT22;16578;53.266;7.920;2023-12-20T11:13:36;9.90;85.90
29663;DHT22;16578;53.266;7.920;2023-12-20T11:16:03;9.90;86.00
29663;DHT22;16578;53.266;7.920;2023-12-20T11:18:32;9.90;86.00
29663;DHT22;16578;53.266;7.920;2023-12-20T11:21:02;10.00;86.00
29663;DHT22;16578;53.266;7.920;2023-12-20T11:23:32;10.00;86.00
29663;DHT22;16578;53.266;7.920;2023-12-20T11:25:59;10.00;86.10
29663;DHT22;16578;53.266;7.920;2023-12-20T11:28:27;10.00;86.10
29663;DHT22;16578;53.266;7.920;2023-12-20T11:30:53;10.10;86.20
29663;DHT22;16578;53.266;7.920;2023-12-20T11:33:26;10.10;86.20
29663;DHT22;16578;53.266;7.920;2023-12-20T11:35:59;10.10;86.20
29663;DHT22;16578;53.266;7.920;2023-12-20T11:38:25;10.20;86.20
29663;DHT22;16578;53.266;7.920;2023-12-20T11:40:53;10.20;86.20
29663;DHT22;16578;53.266;7.920;2023-12-20T11:43:32;10.30;86.20
29663;DHT22;16578;53.266;7.920;2023-12-20T11:46:08;10.30;86.00
29663;DHT22;16578;53.266;7.920;2023-12-20T11:48:38;10.40;86.10
29663;DHT22;16578;53.266;7.920;2023-12-20T11:51:12;10.50;85.80
29663;DHT22;16578;53.266;7.920;2023-12-20T11:53:38;10.50;85.10
29663;DHT22;16578;53.266;7.920;2023-12-20T11:56:06;10.50;86.10
29663;DHT22;16578;53.266;7.920;2023-12-20T11:58:32;10.50;85.20
29663;DHT22;16578;53.266;7.920;2023-12-20T12:00:58;10.50;85.10
29663;DHT22;16578;53.266;7.920;2023-12-20T12:03:24;10.60;85.00
29663;DHT22;16578;53.266;7.920;2023-12-20T12:05:52;10.60;84.70
29663;DHT22;16578;53.266;7.920;2023-12-20T12:08:17;10.60;84.40
29663;DHT22;16578;53.266;7.920;2023-12-20T12:10:46;10.60;84.10
29663;DHT22;16578;53.266;7.920;2023-12-20T12:13:12;10.60;83.90
29663;DHT22;16578;53.266;7.920;2023-12-20T12:15:40;10.60;83.90
29663;DHT22;16578;53.266;7.920;2023-12-20T12:18:07;10.60;83.70
29663;DHT22;16578;53.266;7.920;2023-12-20T12:20:33;10.50;83.40
29663;DHT22;16578;53.266;7.920;2023-12-20T12:23:04;10.50;83.50
29663;DHT22;16578;53.266;7.920;2023-12-20T12:25:30;10.40;83.30
29663;DHT22;16578;53.266;7.920;2023-12-20T12:27:57;10.40;83.30
29663;DHT22;16578;53.266;7.920;2023-12-20T12:30:23;10.30;83.20
29663;DHT22;16578;53.266;7.920;2023-12-20T12:32:51;10.30;83.20
29663;DHT22;16578;53.266;7.920;2023-12-20T12:35:17;10.30;83.30
29663;DHT22;16578;53.266;7.920;2023-12-20T12:37:43;10.20;83.30
29663;DHT22;16578;53.266;7.920;2023-12-20T12:40:16;10.20;83.40
29663;DHT22;16578;53.266;7.920;2023-12-20T12:42:44;10.20;83.40
29663;DHT22;16578;53.266;7.920;2023-12-20T12:45:12;10.10;84.40
29663;DHT22;16578;53.266;7.920;2023-12-20T12:47:38;10.10;83.70
29663;DHT22;16578;53.266;7.920;2023-12-20T12:50:04;10.10;83.90
29663;DHT22;16578;53.266;7.920;2023-12-20T12:52:31;10.10;84.20
29663;DHT22;16578;53.266;7.920;2023-12-20T12:54:57;10.20;84.20
29663;DHT22;16578;53.266;7.920;2023-12-20T12:57:22;10.10;84.20
29663;DHT22;16578;53.266;7.920;2023-12-20T12:59:49;10.20;84.30
29663;DHT22;16578;53.266;7.920;2023-12-20T13:02:15;10.20;84.30
29663;DHT22;16578;53.266;7.920;2023-12-20T13:04:41;10.20;84.20
29663;DHT22;16578;53.266;7.920;2023-12-20T13:07:08;10.30;84.20
29663;DHT22;16578;53.266;7.920;2023-12-20T13:09:36;10.30;84.10
29663;DHT22;16578;53.266;7.920;2023-12-20T13:12:02;10.30;83.90
29663;DHT22;16578;53.266;7.920;2023-12-20T13:14:31;10.30;83.90
29663;DHT22;16578;53.266;7.920;2023-12-20T13:16:58;10.30;84.00
29663;DHT22;16578;53.266;7.920;2023-12-20T13:19:23;10.30;84.80
29663;DHT22;16578;53.266;7.920;2023-12-20T13:21:49;10.40;83.90
29663;DHT22;16578;53.266;7.920;2023-12-20T13:24:15;10.40;83.90
29663;DHT22;16578;53.266;7.920;2023-12-20T13:26:40;10.40;84.00
29663;DHT22;16578;53.266;7.920;2023-12-20T13:29:06;10.40;84.10
29663;DHT22;16578;53.266;7.920;2023-12-20T13:31:32;10.50;84.20
29663;DHT22;16578;53.266;7.920;2023-12-20T13:33:57;10.50;84.00
29663;DHT22;16578;53.266;7.920;2023-12-20T13:36:23;10.50;84.10
29663;DHT22;16578;53.266;7.920;2023-12-20T13:38:48;10.50;84.00
29663;DHT22;16578;53.266;7.920;2023-12-20T13:41:14;10.60;84.00
29663;DHT22;16578;53.266;7.920;2023-12-20T13:43:39;10.60;83.80
29663;DHT22;16578;53.266;7.920;2023-12-20T13:46:05;10.60;83.80
29663;DHT22;16578;53.266;7.920;2023-12-20T13:48:31;10.60;83.70
29663;DHT22;16578;53.266;7.920;2023-12-20T13:50:57;10.70;83.70
29663;DHT22;16578;53.266;7.920;2023-12-20T13:53:28;10.70;83.50
29663;DHT22;16578;53.266;7.920;2023-12-20T13:55:53;10.70;83.40
29663;DHT22;16578;53.266;7.920;2023-12-20T13:58:19;10.60;83.30
29663;DHT22;16578;53.266;7.920;2023-12-20T14:00:45;10.60;83.30
29663;DHT22;16578;53.266;7.920;2023-12-20T14:03:11;10.60;83.30
29663;DHT22;16578;53.266;7.920;2023-12-20T14:05:36;10.60;83.00
29663;DHT22;16578;53.266;7.920;2023-12-20T14:08:02;10.60;83.00
29663;DHT22;16578;53.266;7.920;2023-12-20T14:10:28;10.60;83.10
29663;DHT22;16578;53.266;7.920;2023-12-20T14:12:54;10.60;83.90
29663;DHT22;16578;53.266;7.920;2023-12-20T14:15:20;10.60;83.10
29663;DHT22;16578;53.266;7.920;2023-12-20T14:17:45;10.60;83.10
29663;DHT22;16578;53.266;7.920;2023-12-20T14:20:11;10.60;83.00
29663;DHT22;16578;53.266;7.920;2023-12-20T14:22:39;10.60;83.00
29663;DHT22;16578;53.266;7.920;2023-12-20T14:25:11;10.60;83.00
29663;DHT22;16578;53.266;7.920;2023-12-20T14:27:37;10.60;83.00
29663;DHT22;16578;53.266;7.920;2023-12-20T14:30:03;10.60;83.10
29663;DHT22;16578;53.266;7.920;2023-12-20T14:32:29;10.60;82.90
29663;DHT22;16578;53.266;7.920;2023-12-20T14:34:55;10.60;82.90
29663;DHT22;16578;53.266;7.920;2023-12-20T14:37:20;10.60;82.90
29663;DHT22;16578;53.266;7.920;2023-12-20T14:39:46;10.60;82.90
29663;DHT22;16578;53.266;7.920;2023-12-20T14:42:11;10.60;82.80
29663;DHT22;16578;53.266;7.920;2023-12-20T14:44:42;10.60;82.80
29663;DHT22;16578;53.266;7.920;2023-12-20T14:47:08;10.60;82.70
29663;DHT22;16578;53.266;7.920;2023-12-20T14:49:33;10.60;82.70
29663;DHT22;16578;53.266;7.920;2023-12-20T14:51:59;10.50;82.20
29663;DHT22;16578;53.266;7.920;2023-12-20T14:54:26;10.50;82.00
29663;DHT22;16578;53.266;7.920;2023-12-20T14:56:51;10.40;81.90
29663;DHT22;16578;53.266;7.920;2023-12-20T14:59:17;10.30;82.10
29663;DHT22;16578;53.266;7.920;2023-12-20T15:01:44;10.30;82.30
29663;DHT22;16578;53.266;7.920;2023-12-20T15:04:09;10.30;82.50
29663;DHT22;16578;53.266;7.920;2023-12-20T15:06:35;10.20;82.60
29663;DHT22;16578;53.266;7.920;2023-12-20T15:09:01;10.20;82.80
29663;DHT22;16578;53.266;7.920;2023-12-20T15:11:30;10.20;83.00
29663;DHT22;16578;53.266;7.920;2023-12-20T15:13:56;10.20;83.20
29663;DHT22;16578;53.266;7.920;2023-12-20T15:16:22;10.10;83.20
29663;DHT22;16578;53.266;7.920;2023-12-20T15:18:48;10.10;83.30
29663;DHT22;16578;53.266;7.920;2023-12-20T15:21:15;10.10;83.30
29663;DHT22;16578;53.266;7.920;2023-12-20T15:23:41;10.10;83.50
29663;DHT22;16578;53.266;7.920;2023-12-20T15:26:20;10.10;83.60
29663;DHT22;16578;53.266;7.920;2023-12-20T15:28:46;10.10;83.70
29663;DHT22;16578;53.266;7.920;2023-12-20T15:31:11;10.10;84.70
29663;DHT22;16578;53.266;7.920;2023-12-20T15:33:38;10.10;84.00
29663;DHT22;16578;53.266;7.920;2023-12-20T15:36:04;10.20;84.20